Time;durP1;ratioP1;P1;durP2;ratioP2;P2;SDS_P1;SDS_P2;PMS_P1;PMS_P2;Temp;Humidity;BMP_temperature;BMP_pressure;BME280_temperature;BME280_humidity;BME280_pressure;Samples;Min_cycle;Max_cycle;Signal;HPM_P1;HPM_P2
2022/05/08 00:02:20;;;;;;;5.63;2.73;;;;;;;16.85;40.40;95110.19;5142691;27;20223;-82
2022/05/08 00:04:51;;;;;;;3.87;2.90;;;;;;;16.70;40.47;95091.94;5155085;27;20557;-80
2022/05/08 00:07:18;;;;;;;3.63;2.90;;;;;;;15.96;40.61;94980.31;5172264;27;20183;-80
2022/05/08 00:09:45;;;;;;;7.30;2.50;;;;;;;16.76;40.44;95103.44;5176196;27;20206;-80
2022/05/08 00:12:14;;;;;;;5.43;3.07;;;;;;;16.54;40.76;95069.56;5177472;27;20280;-82
2022/05/08 00:14:41;;;;;;;5.00;3.00;;;;;;;16.71;40.61;95101.34;5178371;27;20584;-79
2022/05/08 00:17:11;;;;;;;6.93;2.90;;;;;;;16.68;40.78;95106.03;5169921;27;20195;-82
2022/05/08 00:19:39;;;;;;;5.47;2.70;;;;;;;16.43;40.62;95072.50;5155030;27;20187;-81
2022/05/08 00:22:06;;;;;;;3.27;2.97;;;;;;;16.14;40.59;95033.50;5155218;27;20226;-82
2022/05/08 00:24:33;;;;;;;5.97;2.87;;;;;;;16.60;40.77;95109.41;5154439;27;20235;-81
2022/05/08 00:27:00;;;;;;;6.87;2.80;;;;;;;16.56;40.58;95114.09;5154891;27;20199;-82
2022/05/08 00:29:28;;;;;;;7.83;3.00;;;;;;;15.86;40.68;95004.69;5154945;27;20187;-81
2022/05/08 00:31:55;;;;;;;3.30;2.63;;;;;;;16.51;40.68;95111.22;5154602;27;20566;-79
2022/05/08 00:34:22;;;;;;;3.60;2.67;;;;;;;16.49;40.50;95107.16;5154937;27;20199;-81
2022/05/08 00:36:49;;;;;;;4.17;2.53;;;;;;;16.20;40.64;95072.38;5155496;27;20187;-82
2022/05/08 00:39:18;;;;;;;4.97;2.93;;;;;;;16.29;40.74;95084.28;5154977;27;20274;-80
2022/05/08 00:41:45;;;;;;;3.73;2.53;;;;;;;16.40;40.83;95105.56;5154414;27;20214;-80
2022/05/08 00:44:12;;;;;;;4.13;2.60;;;;;;;15.41;40.86;94962.88;5154958;27;20717;-81
2022/05/08 00:46:42;;;;;;;3.27;2.83;;;;;;;16.34;40.86;95107.03;5161176;27;20196;-80
2022/05/08 00:49:09;;;;;;;3.43;2.60;;;;;;;16.32;40.90;95106.41;5169080;27;20187;-81
2022/05/08 00:51:36;;;;;;;3.90;2.50;;;;;;;15.96;40.88;95055.13;5156729;27;20203;-80
2022/05/08 00:54:04;;;;;;;9.73;3.00;;;;;;;16.28;40.85;95105.13;5154391;27;20244;-82
2022/05/08 00:56:31;;;;;;;4.07;3.00;;;;;;;16.24;40.85;95102.03;5153817;27;20180;-81
2022/05/08 00:58:58;;;;;;;4.10;2.63;;;;;;;15.94;40.92;95058.84;5153634;27;20566;-82
2022/05/08 01:01:25;;;;;;;4.87;3.00;;;;;;;16.19;40.91;95106.91;5153600;27;20195;-80
2022/05/08 01:03:53;;;;;;;4.60;3.40;;;;;;;16.16;41.05;95099.47;5153440;27;20261;-81
2022/05/08 01:06:25;;;;;;;5.10;2.80;;;;;;;16.13;40.97;95104.94;5153775;27;20412;-82
2022/05/08 01:08:52;;;;;;;4.73;2.67;;;;;;;16.10;41.20;95107.03;5153672;27;20183;-80
2022/05/08 01:11:20;;;;;;;6.77;3.00;;;;;;;16.08;41.31;95108.97;5153385;27;20244;-81
2022/05/08 01:13:47;;;;;;;3.13;2.60;;;;;;;16.04;41.17;95111.06;5153522;27;20187;-80
2022/05/08 01:16:15;;;;;;;3.87;2.73;;;;;;;16.00;41.14;95102.03;5153075;27;20199;-80
2022/05/08 01:18:43;;;;;;;4.77;2.60;;;;;;;15.98;41.26;95104.78;5153384;27;20570;-80
2022/05/08 01:21:14;;;;;;;6.87;2.60;;;;;;;15.29;41.33;95002.84;5153387;27;20188;-83
2022/05/08 01:23:42;;;;;;;2.90;2.30;;;;;;;15.94;41.53;95100.13;5153284;27;20582;-80
2022/05/08 01:26:09;;;;;;;3.57;2.97;;;;;;;15.91;41.46;95101.22;5153198;27;20535;-82
2022/05/08 01:28:36;;;;;;;7.23;2.87;;;;;;;14.59;41.73;94895.00;5153202;27;20202;-81
2022/05/08 01:31:03;;;;;;;4.50;2.40;;;;;;;15.33;41.41;95009.31;5153314;27;20188;-80
2022/05/08 01:33:30;;;;;;;3.43;2.60;;;;;;;15.86;41.45;95098.31;5153279;27;20533;-80
2022/05/08 01:35:57;;;;;;;5.03;2.70;;;;;;;15.48;41.46;95038.63;5152755;27;20213;-80
2022/05/08 01:38:25;;;;;;;5.77;3.00;;;;;;;15.53;41.64;95046.69;5152722;27;20191;-81
2022/05/08 01:40:55;;;;;;;4.87;3.37;;;;;;;15.35;41.53;95034.91;5153263;27;20184;-81
2022/05/08 01:43:21;;;;;;;5.10;2.90;;;;;;;15.64;41.63;95068.81;5153022;27;20223;-80
2022/05/08 01:45:48;;;;;;;6.97;3.20;;;;;;;15.76;41.65;95084.78;5154390;27;20206;-80
2022/05/08 01:48:25;;;;;;;3.90;3.17;;;;;;;15.28;41.70;95024.41;5152954;27;20199;-81
2022/05/08 01:50:53;;;;;;;4.93;2.90;;;;;;;15.70;41.67;95087.97;5153064;27;20196;-80
2022/05/08 01:53:20;;;;;;;5.70;2.90;;;;;;;15.51;41.75;95063.28;5152542;27;20180;-81
2022/05/08 01:55:49;;;;;;;4.03;3.10;;;;;;;15.49;41.71;95063.44;5152575;27;20195;-81
2022/05/08 01:58:18;;;;;;;5.70;3.07;;;;;;;15.51;41.77;95069.25;5152314;27;20192;-82
2022/05/08 02:00:45;;;;;;;4.57;3.07;;;;;;;15.26;41.82;95034.88;5152701;27;20179;-82
2022/05/08 02:03:14;;;;;;;3.10;2.80;;;;;;;15.61;41.81;95086.34;5151892;27;20238;-80
2022/05/08 02:05:42;;;;;;;7.50;2.87;;;;;;;15.57;41.88;95083.25;5152833;27;20221;-80
2022/05/08 02:08:10;;;;;;;4.53;3.00;;;;;;;15.41;41.93;95065.19;5152805;27;20215;-80
2022/05/08 02:10:37;;;;;;;8.17;3.00;;;;;;;15.52;42.03;95091.47;5155573;27;20251;-81
2022/05/08 02:13:07;;;;;;;5.33;3.20;;;;;;;15.48;41.93;95084.22;5164649;27;20196;-79
2022/05/08 02:15:35;;;;;;;2.90;2.60;;;;;;;15.46;41.76;95089.53;5153845;27;20184;-80
2022/05/08 02:18:03;;;;;;;4.90;2.67;;;;;;;15.09;41.96;95027.28;5152765;27;20650;-80
2022/05/08 02:20:31;;;;;;;3.30;2.90;;;;;;;15.10;41.84;95034.03;5152796;27;20191;-81
2022/05/08 02:22:58;;;;;;;3.80;3.13;;;;;;;15.31;41.95;95073.06;5155669;27;20192;-81
2022/05/08 02:25:26;;;;;;;6.23;3.20;;;;;;;14.76;42.14;94991.91;5169183;27;20190;-81
2022/05/08 02:27:52;;;;;;;6.23;2.87;;;;;;;15.34;41.98;95088.22;5167024;27;20194;-81
2022/05/08 02:30:21;;;;;;;7.57;3.83;;;;;;;15.32;42.00;95084.97;5152594;27;20191;-81
2022/05/08 02:32:51;;;;;;;4.73;3.00;;;;;;;15.30;42.10;95084.34;5152356;27;20556;-81
2022/05/08 02:35:20;;;;;;;4.37;2.67;;;;;;;15.14;41.86;95067.03;5151719;27;20665;-81
2022/05/08 02:37:50;;;;;;;3.07;2.77;;;;;;;15.25;41.89;95094.31;5152260;27;20196;-82
2022/05/08 02:40:17;;;;;;;4.27;3.03;;;;;;;15.23;41.93;95091.06;5151726;27;20361;-78
2022/05/08 02:42:45;;;;;;;4.97;2.93;;;;;;;15.20;41.92;95092.22;5152188;27;20574;-80
2022/05/08 02:45:12;;;;;;;4.50;3.37;;;;;;;15.16;42.22;95090.91;5151644;27;20223;-81
2022/05/08 02:47:40;;;;;;;5.20;3.40;;;;;;;15.13;41.84;95090.41;5152099;27;20221;-80
2022/05/08 02:50:10;;;;;;;6.43;3.40;;;;;;;14.63;42.15;95014.72;5151665;27;20180;-81
2022/05/08 02:52:38;;;;;;;3.17;2.83;;;;;;;14.95;42.20;95068.13;5151917;27;20184;-79
2022/05/08 03:00:35;;;;;;;5.27;2.80;;;;;;;14.97;42.22;95091.13;5151921;27;20183;-80
2022/05/08 03:03:04;;;;;;;3.30;3.00;;;;;;;14.96;42.00;95092.09;5151850;27;20227;-80
2022/05/08 03:05:33;;;;;;;6.40;3.50;;;;;;;14.84;42.21;95073.53;5151864;27;20194;-81
2022/05/08 03:08:00;;;;;;;4.67;2.87;;;;;;;14.90;42.32;95090.97;5151860;27;20183;-80
2022/05/08 03:10:27;;;;;;;7.93;3.00;;;;;;;14.89;42.44;95094.47;5151177;27;20222;-81
2022/05/08 03:12:54;;;;;;;4.63;3.00;;;;;;;14.88;42.10;95095.44;5151450;27;20198;-80
2022/05/08 03:15:21;;;;;;;2.73;2.30;;;;;;;14.87;42.15;95095.59;5151321;27;20195;-80
2022/05/08 03:17:48;;;;;;;3.50;2.80;;;;;;;14.84;42.31;95096.72;5152139;27;20191;-79
2022/05/08 03:20:15;;;;;;;4.53;2.97;;;;;;;14.84;42.06;95098.47;5151053;27;20187;-81
2022/05/08 03:22:43;;;;;;;3.90;3.13;;;;;;;14.82;42.24;95092.69;5151407;27;20592;-80
2022/05/08 03:25:10;;;;;;;2.93;2.60;;;;;;;14.73;42.14;95081.53;5151617;27;20252;-80
2022/05/08 03:27:37;;;;;;;4.60;2.63;;;;;;;14.69;41.86;95077.66;5151732;27;20571;-80
2022/05/08 03:30:04;;;;;;;4.70;2.80;;;;;;;14.28;41.79;95015.63;5151277;27;20192;-81
2022/05/08 03:32:31;;;;;;;3.27;2.53;;;;;;;14.80;41.82;95096.19;5151700;27;20180;-81
2022/05/08 03:34:58;;;;;;;7.43;3.10;;;;;;;14.80;41.82;95101.34;5151580;27;20314;-79
2022/05/08 03:37:25;;;;;;;4.63;2.70;;;;;;;14.24;41.66;95009.97;5151347;27;20187;-82
2022/05/08 03:39:53;;;;;;;3.47;3.10;;;;;;;14.81;41.64;95107.34;5152061;27;20191;-80
2022/05/08 03:42:20;;;;;;;4.60;2.83;;;;;;;14.72;41.64;95090.22;5152173;27;20199;-80
2022/05/08 03:44:47;;;;;;;2.97;2.67;;;;;;;14.84;41.53;95104.44;5151808;27;20219;-81
2022/05/08 03:47:14;;;;;;;4.03;2.60;;;;;;;14.87;41.42;95108.47;5151146;27;20191;-79
2022/05/08 03:49:41;;;;;;;4.77;2.90;;;;;;;14.89;41.38;95104.78;5151614;27;20176;-80
2022/05/08 03:52:09;;;;;;;3.23;2.93;;;;;;;14.90;41.50;95113.34;5151146;27;20188;-81
2022/05/08 03:54:36;;;;;;;2.77;2.53;;;;;;;14.29;41.32;95014.66;5151281;27;20202;-80
2022/05/08 03:57:05;;;;;;;4.77;3.37;;;;;;;14.49;41.19;95035.88;5151344;27;20192;-81
2022/05/08 03:59:31;;;;;;;3.10;2.87;;;;;;;14.02;41.28;94957.28;5151542;27;20200;-81
2022/05/08 04:01:58;;;;;;;3.00;2.70;;;;;;;15.05;41.13;95106.63;5155816;27;20665;-81
2022/05/08 04:04:25;;;;;;;3.53;2.93;;;;;;;15.09;41.35;95113.09;5155488;27;20217;-81
2022/05/08 04:06:52;;;;;;;3.60;3.00;;;;;;;14.95;41.34;95083.56;5155401;27;20191;-81
2022/05/08 04:09:19;;;;;;;4.37;3.10;;;;;;;15.09;41.59;95100.19;5155211;27;20188;-82
2022/05/08 04:11:46;;;;;;;8.97;3.03;;;;;;;14.99;41.83;95078.94;5155697;27;20199;-80
2022/05/08 04:14:14;;;;;;;6.20;3.43;;;;;;;15.26;41.82;95121.69;5154716;27;20188;-82
2022/05/08 04:16:41;;;;;;;3.57;3.07;;;;;;;15.24;41.73;95113.28;5155319;27;20259;-81
2022/05/08 04:19:08;;;;;;;7.20;3.23;;;;;;;14.89;42.12;95049.91;5154542;27;20195;-80
2022/05/08 04:21:34;;;;;;;6.20;3.30;;;;;;;15.32;42.32;95108.97;5159531;27;20190;-80
2022/05/08 04:24:18;;;;;;;9.60;3.37;;;;;;;15.45;42.51;95118.03;5157985;27;20199;-81
2022/05/08 04:26:46;;;;;;;4.47;3.37;;;;;;;15.47;42.89;95126.44;5154467;27;20203;-82
2022/05/08 04:29:14;;;;;;;6.87;3.90;;;;;;;15.49;43.04;95127.06;5154089;27;20650;-81
2022/05/08 04:31:41;;;;;;;4.10;3.27;;;;;;;15.50;43.10;95128.66;5154747;27;20180;-80
2022/05/08 04:34:07;;;;;;;4.50;3.87;;;;;;;14.66;43.22;94982.72;5154193;27;20674;-81
2022/05/08 04:36:34;;;;;;;6.10;3.07;;;;;;;15.62;42.66;95134.34;5154469;27;20264;-81
2022/05/08 04:39:02;;;;;;;4.60;3.03;;;;;;;15.66;42.48;95138.25;5154322;27;20647;-81
2022/05/08 04:41:29;;;;;;;3.77;2.97;;;;;;;15.02;42.21;95027.88;5153874;27;20198;-80
2022/05/08 04:43:59;;;;;;;5.90;3.13;;;;;;;15.75;42.06;95132.16;5153920;27;20216;-80
2022/05/08 04:46:28;;;;;;;4.60;3.00;;;;;;;15.67;42.08;95107.19;5153958;27;20554;-80
2022/05/08 04:48:55;;;;;;;4.03;2.83;;;;;;;16.03;41.86;95130.09;5154037;27;20210;-80
2022/05/08 04:51:22;;;;;;;5.13;2.90;;;;;;;16.18;43.16;95104.44;5154071;27;20184;-80
2022/05/08 04:53:49;;;;;;;7.83;3.40;;;;;;;16.69;44.08;95136.03;5154077;27;20195;-83
2022/05/08 04:56:16;;;;;;;9.27;3.10;;;;;;;16.71;44.79;95072.09;5153851;27;20211;-80
2022/05/08 04:58:43;;;;;;;4.93;3.00;;;;;;;17.34;45.00;95091.09;5154049;27;20662;-81
2022/05/08 05:01:10;;;;;;;8.27;2.77;;;;;;;17.29;44.76;94983.06;5154079;27;20271;-79
2022/05/08 05:03:38;;;;;;;3.70;2.70;;;;;;;17.69;44.28;94927.63;5153862;27;20242;-81
2022/05/08 05:06:05;;;;;;;3.80;3.13;;;;;;;18.99;43.55;95004.91;5154407;27;20180;-81
2022/05/08 05:08:32;;;;;;;4.60;3.10;;;;;;;20.61;42.59;95141.09;5154113;27;20199;-80
2022/05/08 05:10:59;;;;;;;4.73;2.93;;;;;;;21.42;41.47;95136.22;5158951;27;20201;-81
2022/05/08 05:13:26;;;;;;;3.40;2.80;;;;;;;22.26;40.05;95142.88;5163582;27;20184;-81
2022/05/08 05:15:53;;;;;;;3.97;3.00;;;;;;;23.11;39.09;95143.06;5154275;27;20198;-82
2022/05/08 05:18:20;;;;;;;7.13;3.05;;;;;;;23.94;37.83;95143.19;5154899;27;20195;-80
2022/05/08 05:20:48;;;;;;;3.28;2.72;;;;;;;24.76;36.33;95147.44;5153483;27;20187;-80
2022/05/08 05:23:15;;;;;;;4.55;3.10;;;;;;;25.51;35.27;95138.66;5153311;27;20192;-79
2022/05/08 05:25:42;;;;;;;9.65;2.80;;;;;;;26.29;34.36;95145.72;5153355;27;20207;-80
2022/05/08 05:28:09;;;;;;;5.53;2.50;;;;;;;27.02;33.25;95136.69;5153389;27;20195;-81
2022/05/08 05:30:36;;;;;;;4.57;2.83;;;;;;;27.86;31.91;95147.66;5154362;27;20183;-80
2022/05/08 05:33:03;;;;;;;4.80;2.50;;;;;;;28.47;30.92;95130.34;5154737;27;20191;-80
2022/05/08 05:35:30;;;;;;;3.95;2.70;;;;;;;29.25;30.35;95146.25;5153215;27;20199;-81
2022/05/08 05:37:58;;;;;;;4.88;2.70;;;;;;;29.91;29.20;95141.78;5153268;27;20578;-79
2022/05/08 05:40:25;;;;;;;6.63;2.70;;;;;;;30.54;28.69;95150.09;5153351;27;20263;-81
2022/05/08 05:42:52;;;;;;;3.33;2.90;;;;;;;31.16;28.12;95151.31;5154129;27;20188;-82
2022/05/08 05:45:19;;;;;;;4.25;2.80;;;;;;;31.75;27.01;95153.75;5153801;27;20958;-80
2022/05/08 05:47:52;;;;;;;5.50;3.17;;;;;;;32.32;26.29;95152.06;5153974;27;20649;-81
2022/05/08 05:50:20;;;;;;;6.95;3.40;;;;;;;32.87;25.52;95145.22;5153580;27;20229;-80
2022/05/08 05:52:47;;;;;;;2.92;2.65;;;;;;;33.39;25.18;95152.81;5152888;27;20191;-80
2022/05/08 05:55:15;;;;;;;6.93;2.90;;;;;;;33.89;24.64;95151.03;5153283;27;20219;-79
2022/05/08 05:57:43;;;;;;;4.93;2.55;;;;;;;34.01;24.30;95092.34;5152883;27;20635;-80
2022/05/08 06:00:11;;;;;;;4.43;2.60;;;;;;;34.84;23.66;95157.09;5152956;27;20187;-80
2022/05/08 06:02:40;;;;;;;4.93;3.13;;;;;;;35.17;23.19;95139.53;5152257;27;20216;-79
2022/05/08 06:05:07;;;;;;;5.63;2.70;;;;;;;35.55;22.92;95129.03;5152849;27;20758;-79
2022/05/08 06:07:34;;;;;;;5.93;2.72;;;;;;;36.10;22.41;95148.03;5152825;27;20180;-80
2022/05/08 06:10:02;;;;;;;4.93;2.83;;;;;;;36.50;22.13;95144.00;5152979;27;20187;-79
2022/05/08 06:12:32;;;;;;;2.50;2.30;;;;;;;36.86;21.76;95144.19;5152526;27;20184;-81
2022/05/08 06:14:59;;;;;;;4.13;2.60;;;;;;;37.16;21.32;95134.09;5152624;27;20192;-79
2022/05/08 06:17:26;;;;;;;4.05;2.92;;;;;;;37.30;21.13;95108.22;5152705;27;20183;-80
2022/05/08 06:19:53;;;;;;;9.40;2.58;;;;;;;37.88;20.76;95145.00;5152070;27;20191;-80
2022/05/08 06:22:20;;;;;;;3.97;2.78;;;;;;;38.20;20.55;95147.78;5151634;27;20192;-82
2022/05/08 06:24:47;;;;;;;6.82;2.63;;;;;;;38.50;20.19;95152.47;5151680;27;20602;-82
2022/05/08 06:27:14;;;;;;;5.05;2.42;;;;;;;38.77;19.82;95150.78;5152112;27;20184;-82
2022/05/08 06:29:42;;;;;;;2.63;2.42;;;;;;;39.03;19.91;95149.03;5152053;27;20192;-81
2022/05/08 06:32:09;;;;;;;3.25;2.05;;;;;;;39.27;19.69;95148.72;5152445;27;20210;-82
2022/05/08 06:34:36;;;;;;;4.72;3.00;;;;;;;39.23;19.32;95098.78;5153116;27;20697;-80
2022/05/08 06:37:04;;;;;;;3.08;2.40;;;;;;;39.76;19.20;95152.19;5152977;27;20187;-82
2022/05/08 06:39:33;;;;;;;3.70;2.83;;;;;;;39.99;19.17;95147.53;5154731;27;20631;-79
2022/05/08 06:42:01;;;;;;;4.38;2.78;;;;;;;40.20;18.96;95138.88;5135304;27;20191;-79
2022/05/08 06:44:27;;;;;;;4.45;2.60;;;;;;;40.41;19.00;95142.50;5153534;27;20219;-81
2022/05/08 06:46:56;;;;;;;4.68;2.78;;;;;;;40.58;18.49;95142.50;5153049;27;20196;-80
2022/05/08 06:49:22;;;;;;;3.85;2.83;;;;;;;40.67;18.56;95112.22;5152524;27;20188;-80
2022/05/08 06:51:49;;;;;;;4.18;2.50;;;;;;;40.58;18.38;95074.69;5152610;27;20195;-80
2022/05/08 06:54:16;;;;;;;3.35;2.65;;;;;;;41.11;18.22;95135.97;5154202;27;20184;-80
2022/05/08 06:56:43;;;;;;;6.50;2.55;;;;;;;40.92;17.82;95084.53;5160271;27;20187;-81
2022/05/08 07:01:55;;;;;;;2.72;2.53;;;;;;;41.51;17.52;95132.19;5158281;27;20193;-81
2022/05/08 07:04:22;;;;;;;7.03;2.83;;;;;;;41.60;17.56;95135.59;5158382;27;20183;-82
2022/05/08 07:06:51;;;;;;;2.50;2.30;;;;;;;41.70;17.43;95134.44;5158814;27;20209;-81
2022/05/08 07:09:18;;;;;;;4.88;2.63;;;;;;;41.81;17.93;95133.00;5153180;27;20231;-83
2022/05/08 07:11:47;;;;;;;6.40;3.17;;;;;;;41.85;17.63;95123.16;5154613;27;20663;-81
2022/05/08 07:14:14;;;;;;;3.28;2.42;;;;;;;41.98;17.20;95129.41;5157967;27;20218;-81
2022/05/08 07:16:41;;;;;;;3.15;2.55;;;;;;;42.04;17.31;95125.38;5153032;27;20191;-80
2022/05/08 07:19:10;;;;;;;4.97;2.75;;;;;;;42.09;17.23;95131.34;5154593;27;20191;-82
2022/05/08 07:21:37;;;;;;;3.13;2.60;;;;;;;41.97;17.11;95101.75;5153668;27;20191;-81
2022/05/08 07:24:04;;;;;;;5.63;2.40;;;;;;;42.20;17.34;95130.97;5153433;27;20209;-80
2022/05/08 07:26:31;;;;;;;2.97;2.60;;;;;;;41.96;17.41;95094.78;5151734;27;20223;-82
2022/05/08 07:28:58;;;;;;;5.80;2.38;;;;;;;42.20;17.02;95115.63;5151678;27;20654;-81
2022/05/08 07:31:25;;;;;;;5.53;2.95;;;;;;;42.21;16.74;95122.56;5151058;27;20194;-80
2022/05/08 07:36:12;;;;;;;5.25;2.90;;;;;;;42.21;16.90;95119.09;5151670;27;20218;-81
2022/05/08 07:36:40;;;;;;;4.38;2.80;;;;;;;42.19;16.86;95116.75;5155442;27;20243;-80
2022/05/08 07:39:07;;;;;;;3.75;2.80;;;;;;;41.87;16.69;95069.09;5155768;27;20522;-79
2022/05/08 07:41:33;;;;;;;3.67;2.88;;;;;;;42.16;17.24;95116.59;5156192;27;20713;-80
2022/05/08 07:44:01;;;;;;;4.15;2.70;;;;;;;42.14;17.08;95110.75;5156224;27;20198;-81
2022/05/08 07:46:28;;;;;;;3.88;2.45;;;;;;;42.12;16.84;95104.94;5155622;27;20227;-80
2022/05/08 07:48:54;;;;;;;2.33;2.22;;;;;;;41.98;17.16;95099.84;5156074;27;20180;-81
2022/05/08 07:51:21;;;;;;;3.53;2.75;;;;;;;42.01;17.32;95112.59;5155876;27;20195;-79
2022/05/08 07:53:50;;;;;;;2.72;2.53;;;;;;;41.92;17.38;95103.81;5155654;27;20190;-79
2022/05/08 07:56:17;;;;;;;2.83;2.47;;;;;;;41.83;17.01;95107.34;5156124;27;20564;-80
2022/05/08 07:58:44;;;;;;;2.88;2.53;;;;;;;41.73;17.18;95099.66;5158227;27;20191;-79
2022/05/08 08:01:12;;;;;;;7.25;3.25;;;;;;;41.64;16.69;95106.19;5161991;27;20643;-81
2022/05/08 08:03:41;;;;;;;5.35;2.60;;;;;;;41.53;16.78;95103.09;5162093;27;20223;-80
2022/05/08 08:06:08;;;;;;;2.97;2.60;;;;;;;41.32;16.83;95093.09;5155848;27;20222;-81
2022/05/08 08:08:35;;;;;;;4.07;2.90;;;;;;;41.29;16.94;95098.31;5155098;27;20190;-80
2022/05/08 08:11:04;;;;;;;3.33;2.58;;;;;;;41.14;17.39;95099.63;5160717;27;20248;-80
2022/05/08 08:13:33;;;;;;;4.13;2.78;;;;;;;41.02;16.97;95100.31;5162336;27;20198;-84
2022/05/08 08:16:01;;;;;;;6.07;2.63;;;;;;;40.59;17.26;95044.06;5158727;27;20230;-80
2022/05/08 08:18:28;;;;;;;4.40;2.92;;;;;;;40.74;17.19;95091.06;5155778;27;20183;-80
2022/05/08 08:20:55;;;;;;;4.53;2.70;;;;;;;40.51;17.22;95079.72;5155305;27;20214;-82
2022/05/08 08:23:22;;;;;;;4.97;2.90;;;;;;;40.47;17.14;95092.19;5154655;27;20251;-81
2022/05/08 08:25:51;;;;;;;6.10;2.85;;;;;;;40.30;17.43;95084.97;5154668;27;20802;-80
2022/05/08 08:28:20;;;;;;;4.85;2.75;;;;;;;39.98;17.45;95070.13;5154381;27;20221;-81
2022/05/08 08:30:46;;;;;;;2.90;2.60;;;;;;;39.99;17.41;95095.84;5154571;27;20188;-81
2022/05/08 08:33:13;;;;;;;4.72;2.90;;;;;;;39.67;17.58;95065.69;5154543;27;20732;-80
2022/05/08 08:35:40;;;;;;;3.35;2.58;;;;;;;39.61;17.58;95083.00;5154657;27;20886;-81
2022/05/08 08:38:07;;;;;;;2.83;2.50;;;;;;;39.44;17.54;95082.97;5155254;27;20179;-81
2022/05/08 08:40:40;;;;;;;7.13;2.72;;;;;;;39.26;17.67;95082.91;5154935;27;20183;-82
2022/05/08 08:43:09;;;;;;;6.40;2.90;;;;;;;39.00;17.70;95069.41;5154569;27;20655;-81
2022/05/08 08:48:28;;;;;;;2.67;2.42;;;;;;;38.61;17.96;95062.13;5154454;27;20203;-81
2022/05/08 08:50:56;;;;;;;4.38;2.85;;;;;;;38.25;17.95;95040.78;5154907;27;20180;-80
2022/05/08 08:53:24;;;;;;;2.80;2.60;;;;;;;38.02;17.84;95032.78;5154230;27;20566;-80
2022/05/08 08:55:51;;;;;;;4.50;2.70;;;;;;;38.08;17.91;95060.94;5154745;27;20188;-81
2022/05/08 08:58:18;;;;;;;3.63;2.63;;;;;;;37.88;17.97;95074.78;5161241;27;20194;-81
2022/05/08 09:00:47;;;;;;;8.63;2.83;;;;;;;37.62;18.05;95056.63;5175936;27;20191;-81
2022/05/08 09:03:19;;;;;;;4.85;2.95;;;;;;;37.48;18.07;95066.53;5161153;27;20223;-81
2022/05/08 09:05:46;;;;;;;2.85;2.35;;;;;;;37.27;18.14;95055.47;5172784;27;20211;-81
2022/05/08 09:08:25;;;;;;;3.75;2.97;;;;;;;36.68;18.49;95001.09;5174367;27;20232;-81
2022/05/08 09:10:54;;;;;;;5.78;2.88;;;;;;;36.81;18.40;95048.31;5169211;27;20207;-81
2022/05/08 09:13:22;;;;;;;5.10;2.78;;;;;;;36.60;18.28;95061.22;5163294;27;20219;-81
2022/05/08 09:15:52;;;;;;;4.70;2.72;;;;;;;36.39;18.36;95049.28;5155824;27;20397;-82
2022/05/08 09:18:22;;;;;;;6.78;2.78;;;;;;;36.10;18.91;95038.84;5155349;27;20554;-81
2022/05/08 09:20:50;;;;;;;3.13;2.60;;;;;;;35.86;19.17;95034.38;5157978;27;20196;-80
2022/05/08 09:23:18;;;;;;;7.22;2.38;;;;;;;35.64;19.16;95040.28;5152950;27;20179;-80
2022/05/08 09:25:51;;;;;;;4.47;2.53;;;;;;;35.28;19.00;95028.47;5132697;27;20224;-83
2022/05/08 09:28:19;;;;;;;3.28;2.65;;;;;;;34.90;19.15;94993.84;5133699;27;20189;-83
2022/05/08 09:31:04;;;;;;;6.75;2.67;;;;;;;34.89;19.61;95034.78;5133541;27;20203;-84
2022/05/08 09:33:34;;;;;;;3.95;2.50;;;;;;;34.54;19.54;95017.31;5133334;27;20184;-81
2022/05/08 09:36:02;;;;;;;2.40;2.20;;;;;;;34.41;19.66;95037.34;5133444;27;20199;-79
2022/05/08 09:38:50;;;;;;;2.40;2.20;;;;;;;34.07;19.88;95016.94;5133289;27;20579;-81
2022/05/08 09:41:21;;;;;;;5.22;2.80;;;;;;;33.94;20.03;95033.47;5132976;27;20192;-83
2022/05/08 09:43:48;;;;;;;3.25;2.28;;;;;;;33.74;20.13;95022.97;5132649;27;20595;-79
2022/05/08 09:46:17;;;;;;;3.80;2.33;;;;;;;33.07;20.09;94958.88;5132692;27;20714;-79
2022/05/08 09:48:44;;;;;;;3.95;2.40;;;;;;;33.32;19.90;95021.56;5132479;27;20223;-79
2022/05/08 09:51:13;;;;;;;2.50;2.30;;;;;;;33.10;20.26;95012.13;5135031;27;20192;-82
2022/05/08 09:53:41;;;;;;;2.33;2.13;;;;;;;32.90;20.18;95012.16;5132538;27;20191;-80
2022/05/08 09:56:10;;;;;;;2.45;2.10;;;;;;;32.67;19.64;95009.06;5133106;27;20189;-83
2022/05/08 09:58:38;;;;;;;4.55;2.00;;;;;;;32.47;19.54;95012.56;5130634;27;20195;-81
2022/05/08 10:01:07;;;;;;;5.25;1.85;;;;;;;32.26;19.80;94996.94;5132476;27;20245;-81
2022/05/08 10:03:35;;;;;;;2.28;2.08;;;;;;;32.10;19.68;94993.50;5131782;27;20232;-80
2022/05/08 10:06:03;;;;;;;2.30;2.10;;;;;;;31.70;19.50;94958.03;5132305;27;20702;-80
2022/05/08 10:08:34;;;;;;;2.17;1.98;;;;;;;31.76;19.47;94988.69;5132170;27;20176;-79
2022/05/08 10:13:56;;;;;;;2.15;1.92;;;;;;;31.43;19.27;94998.72;5131878;27;20249;-81
2022/05/08 10:16:49;;;;;;;1.98;1.70;;;;;;;31.25;19.63;94980.63;5132038;27;20248;-80
2022/05/08 10:19:58;;;;;;;2.50;2.30;;;;;;;31.08;19.65;94983.50;5131952;27;20683;-80
2022/05/08 10:22:45;;;;;;;2.17;1.80;;;;;;;30.87;19.60;94968.63;5132530;27;20223;-80
2022/05/08 10:25:15;;;;;;;2.05;1.88;;;;;;;30.75;20.16;94970.69;5132026;27;20696;-82
2022/05/08 10:28:02;;;;;;;2.30;1.83;;;;;;;30.68;20.22;94981.44;5133230;27;20200;-82
2022/05/08 10:30:30;;;;;;;3.67;2.22;;;;;;;30.54;20.56;94970.56;5131775;27;20195;-83
2022/05/08 10:32:57;;;;;;;2.53;2.08;;;;;;;30.31;20.42;94950.66;5132017;27;20192;-83
2022/05/08 10:35:26;;;;;;;2.33;2.13;;;;;;;30.32;20.78;94965.41;5131616;27;20180;-83
2022/05/08 10:38:21;;;;;;;2.40;2.20;;;;;;;30.00;20.96;94946.94;5131552;27;20335;-83
2022/05/08 10:40:48;;;;;;;3.33;2.05;;;;;;;29.78;20.93;94919.91;5131543;27;20219;-84
2022/05/08 10:43:32;;;;;;;2.45;2.10;;;;;;;30.00;20.54;94962.78;5131933;27;20195;-84
2022/05/08 10:46:22;;;;;;;2.00;1.90;;;;;;;29.88;20.70;94957.69;5131151;27;20307;-85
2022/05/08 10:48:51;;;;;;;5.32;2.20;;;;;;;29.42;20.93;94903.75;5131485;27;20671;-85
2022/05/08 10:51:18;;;;;;;3.20;2.42;;;;;;;29.69;20.81;94957.25;5135651;27;20247;-83
2022/05/08 10:53:46;;;;;;;3.00;2.30;;;;;;;29.61;21.02;94954.28;5135727;27;20184;-83
2022/05/08 10:56:14;;;;;;;2.53;1.92;;;;;;;29.13;21.09;94882.16;5132996;27;20176;-84
2022/05/08 10:58:53;;;;;;;2.30;2.10;;;;;;;29.32;21.05;94927.38;5132086;27;20184;-85
2022/05/08 11:01:20;;;;;;;2.80;2.50;;;;;;;29.33;21.34;94935.03;5132346;27;20191;-83
2022/05/08 11:03:46;;;;;;;2.13;2.00;;;;;;;29.29;21.66;94943.69;5135198;27;20236;-84
2022/05/08 11:06:20;;;;;;;4.88;2.17;;;;;;;29.02;21.37;94912.06;5136055;28;20219;-83
2022/05/08 11:08:49;;;;;;;3.70;2.08;;;;;;;29.13;21.70;94927.72;5136921;27;20647;-83
2022/05/08 11:11:16;;;;;;;3.85;2.38;;;;;;;27.91;21.88;94755.25;5143260;27;20188;-83
2022/05/08 11:13:45;;;;;;;2.40;2.20;;;;;;;28.94;21.61;94918.53;5147069;27;20196;-83
2022/05/08 11:16:15;;;;;;;2.60;2.40;;;;;;;28.64;21.89;94879.50;5149423;27;20195;-84
2022/05/08 11:18:42;;;;;;;2.58;2.35;;;;;;;28.59;21.66;94879.47;5139957;27;20658;-83
2022/05/08 11:21:09;;;;;;;3.00;2.35;;;;;;;28.71;21.93;94911.69;5142182;27;20188;-84
2022/05/08 11:23:42;;;;;;;2.22;2.03;;;;;;;28.76;22.41;94919.66;5143286;27;20193;-86
2022/05/08 11:26:12;;;;;;;3.17;2.10;;;;;;;28.52;22.41;94892.78;5143895;27;20241;-84
2022/05/08 11:28:49;;;;;;;5.32;2.30;;;;;;;28.41;22.22;94873.47;5140560;27;20195;-83
2022/05/08 11:31:17;;;;;;;3.30;2.35;;;;;;;28.44;22.83;94880.84;5139540;27;20187;-84
2022/05/08 11:36:32;;;;;;;2.78;2.45;;;;;;;28.25;22.59;94874.28;5140379;27;20195;-85
2022/05/08 11:39:00;;;;;;;3.08;2.40;;;;;;;28.43;22.51;94899.53;5145992;27;20196;-83
2022/05/08 11:41:34;;;;;;;2.55;2.10;;;;;;;28.40;22.80;94900.00;5154461;27;20188;-80
2022/05/08 11:44:03;;;;;;;5.93;2.40;;;;;;;28.37;22.87;94897.84;5145453;27;20206;-82
2022/05/08 11:46:36;;;;;;;3.70;2.58;;;;;;;28.33;23.07;94894.09;5139124;27;20230;-84
2022/05/08 11:49:14;;;;;;;2.22;2.03;;;;;;;28.21;23.11;94875.78;5138046;27;20571;-85
2022/05/08 11:51:43;;;;;;;4.35;2.60;;;;;;;27.78;22.71;94811.59;5138536;27;20603;-82
2022/05/08 11:54:20;;;;;;;3.60;2.47;;;;;;;28.14;23.07;94883.84;5138321;27;20685;-84
2022/05/08 11:56:51;;;;;;;2.10;2.00;;;;;;;27.79;23.16;94838.66;5138762;27;20191;-81
2022/05/08 11:59:21;;;;;;;4.45;2.20;;;;;;;28.12;22.92;94893.03;5140169;27;20196;-83